createdAt,value
2019-02-04T00:01:56.435Z,-0.20
2019-02-04T00:04:22.467Z,-0.20
2019-02-04T00:06:48.530Z,-0.20
2019-02-04T00:09:14.556Z,-0.20
2019-02-04T00:11:40.615Z,-0.20
2019-02-04T00:14:07.119Z,-0.20
2019-02-04T00:16:40.633Z,-0.20
2019-02-04T00:19:01.303Z,-0.30
2019-02-04T00:21:27.371Z,-0.30
2019-02-04T00:23:53.438Z,-0.20
2019-02-04T00:26:19.600Z,-0.30
2019-02-04T00:28:45.655Z,-0.20
2019-02-04T00:31:11.711Z,-0.30
2019-02-04T00:33:37.957Z,-0.20
2019-02-04T00:36:04.290Z,-0.20
2019-02-04T00:38:30.466Z,-0.20
2019-02-04T00:40:56.497Z,-0.30
2019-02-04T00:43:22.657Z,-0.30
2019-02-04T00:45:48.692Z,-0.20
2019-02-04T00:48:14.747Z,-0.20
2019-02-04T00:50:40.818Z,-0.20
2019-02-04T00:53:07.199Z,-0.20
2019-02-04T00:55:33.254Z,-0.20
2019-02-04T00:57:59.304Z,-0.30
2019-02-04T01:00:28.036Z,-0.20
2019-02-04T01:02:54.658Z,-0.30
2019-02-04T01:05:21.066Z,-0.30
2019-02-04T01:07:47.503Z,-0.30
2019-02-04T01:10:26.267Z,-0.30
2019-02-04T01:12:52.399Z,-0.30
2019-02-04T01:15:18.952Z,-0.20
2019-02-04T01:17:45.188Z,-0.30
2019-02-04T01:20:14.840Z,-0.30
2019-02-04T01:22:40.900Z,-0.30
2019-02-04T01:25:08.335Z,-0.40
2019-02-04T01:27:34.478Z,-0.40
2019-02-04T01:30:00.629Z,-0.30
2019-02-04T01:32:26.736Z,-0.40
2019-02-04T01:34:52.827Z,-0.30
2019-02-04T01:37:19.070Z,-0.40
2019-02-04T01:39:45.204Z,-0.30
2019-02-04T01:42:11.235Z,-0.30
2019-02-04T01:44:37.743Z,-0.30
2019-02-04T01:47:14.168Z,-0.30
2019-02-04T01:49:31.856Z,-0.30
2019-02-04T01:51:58.662Z,-0.30
2019-02-04T01:54:24.705Z,-0.40
2019-02-04T01:56:50.720Z,-0.40
2019-02-04T01:59:16.787Z,-0.40
2019-02-04T02:01:43.231Z,-0.40
2019-02-04T02:04:09.262Z,-0.40
2019-02-04T02:06:35.283Z,-0.40
2019-02-04T02:09:01.329Z,-0.40
2019-02-04T02:11:27.464Z,-0.40
2019-02-04T02:13:53.561Z,-0.40
2019-02-04T02:16:19.885Z,-0.40
2019-02-04T02:18:45.947Z,-0.40
2019-02-04T02:21:12.317Z,-0.40
2019-02-04T02:23:38.359Z,-0.40
2019-02-04T02:26:04.480Z,-0.40
2019-02-04T02:28:30.538Z,-0.40
2019-02-04T02:30:56.560Z,-0.30
2019-02-04T02:33:22.719Z,-0.40
2019-02-04T02:35:48.896Z,-0.40
2019-02-04T02:38:14.995Z,-0.40
2019-02-04T02:40:41.410Z,-0.50
2019-02-04T02:43:07.440Z,-0.40
2019-02-04T02:45:33.473Z,-0.40
2019-02-04T02:47:59.714Z,-0.40
2019-02-04T02:50:26.140Z,-0.40
2019-02-04T02:52:52.863Z,-0.40
2019-02-04T02:55:19.177Z,-0.40
2019-02-04T02:57:45.411Z,-0.40
2019-02-04T03:00:14.451Z,-0.40
2019-02-04T03:02:40.585Z,-0.50
2019-02-04T03:05:09.515Z,-0.50
2019-02-04T03:07:35.580Z,-0.50
2019-02-04T03:10:01.613Z,-0.50
2019-02-04T03:12:27.774Z,-0.50
2019-02-04T03:14:53.776Z,-0.50
2019-02-04T03:17:20.138Z,-0.50
2019-02-04T03:19:46.232Z,-0.50
2019-02-04T03:22:12.264Z,-0.60
2019-02-04T03:24:38.290Z,-0.70
2019-02-04T03:27:04.580Z,-0.70
2019-02-04T03:29:31.318Z,-0.70
2019-02-04T03:31:57.349Z,-0.70
2019-02-04T03:34:23.616Z,-0.70
2019-02-04T03:36:49.957Z,-0.80
2019-02-04T03:39:16.085Z,-0.80
2019-02-04T03:41:42.151Z,-0.80
2019-02-04T03:44:08.191Z,-0.80
2019-02-04T03:46:34.253Z,-0.90
2019-02-04T03:49:00.298Z,-0.90
2019-02-04T03:51:26.522Z,-0.80
2019-02-04T03:53:52.567Z,-0.80
2019-02-04T03:56:18.679Z,-0.80
2019-02-04T03:58:44.752Z,-0.80
2019-02-04T04:01:10.775Z,-0.80
2019-02-04T04:03:36.815Z,-0.80
2019-02-04T04:06:03.067Z,-0.80
2019-02-04T04:08:29.088Z,-0.80
2019-02-04T04:10:55.950Z,-0.70
2019-02-04T04:13:22.325Z,-0.70
2019-02-04T04:15:48.362Z,-0.70
2019-02-04T04:18:16.165Z,-0.70
2019-02-04T04:20:42.540Z,-0.60
2019-02-04T04:23:08.587Z,-0.50
2019-02-04T04:25:34.965Z,-0.50
2019-02-04T04:28:01.244Z,-0.40
2019-02-04T04:30:27.646Z,-0.10
2019-02-04T04:32:54.516Z,0.00
2019-02-04T04:35:20.568Z,0.10
2019-02-04T04:37:46.700Z,0.20
2019-02-04T04:40:14.677Z,0.30
2019-02-04T04:42:40.988Z,0.40
2019-02-04T04:45:10.588Z,0.50
2019-02-04T04:47:36.639Z,0.50
2019-02-04T04:50:05.110Z,0.60
2019-02-04T04:52:31.131Z,0.60
2019-02-04T04:54:57.195Z,0.70
2019-02-04T04:57:23.287Z,0.70
2019-02-04T04:59:49.461Z,0.70
2019-02-04T05:02:15.503Z,0.70
2019-02-04T05:04:41.568Z,0.80
2019-02-04T05:07:07.638Z,0.80
2019-02-04T05:09:34.112Z,0.80
2019-02-04T05:12:00.192Z,0.90
2019-02-04T05:14:26.277Z,1.00
2019-02-04T05:16:52.401Z,1.00
2019-02-04T05:19:18.545Z,1.10
2019-02-04T05:21:44.593Z,1.10
2019-02-04T05:24:10.644Z,1.20
2019-02-04T05:26:36.683Z,1.20
2019-02-04T05:29:02.966Z,1.30
2019-02-04T05:31:29.007Z,1.30
2019-02-04T05:33:56.085Z,1.30
2019-02-04T05:36:22.137Z,1.30
2019-02-04T05:38:48.168Z,1.30
2019-02-04T05:41:14.230Z,1.40
2019-02-04T05:43:40.256Z,1.40
2019-02-04T05:46:06.599Z,1.40
2019-02-04T05:48:32.749Z,1.40
2019-02-04T05:50:58.838Z,1.40
2019-02-04T05:53:24.876Z,1.30
2019-02-04T05:55:50.935Z,1.30
2019-02-04T05:58:17.344Z,1.30
2019-02-04T06:00:45.289Z,1.30
2019-02-04T06:03:11.427Z,1.50
2019-02-04T06:05:37.983Z,1.50
2019-02-04T06:08:04.272Z,1.50
2019-02-04T06:10:30.361Z,1.50
2019-02-04T06:12:56.452Z,1.40
2019-02-04T06:15:22.528Z,1.40
2019-02-04T06:17:48.696Z,1.50
2019-02-04T06:20:20.731Z,1.60
2019-02-04T06:22:46.774Z,1.60
2019-02-04T06:25:12.897Z,1.60
2019-02-04T06:27:38.959Z,1.50
2019-02-04T06:30:08.812Z,1.60
2019-02-04T06:32:34.901Z,1.50
2019-02-04T06:35:01.026Z,1.50
2019-02-04T06:37:27.063Z,1.50
2019-02-04T06:39:53.105Z,1.50
2019-02-04T06:42:19.694Z,1.50
2019-02-04T06:44:45.711Z,1.50
2019-02-04T06:47:11.755Z,1.40
2019-02-04T06:49:37.828Z,1.50
2019-02-04T06:52:03.967Z,1.50
2019-02-04T06:54:29.996Z,1.60
2019-02-04T06:56:56.412Z,1.50
2019-02-04T06:59:22.599Z,1.60
2019-02-04T07:01:48.920Z,1.50
2019-02-04T07:04:14.951Z,1.60
2019-02-04T07:06:41.031Z,1.50
2019-02-04T07:09:08.078Z,1.50
2019-02-04T07:11:34.103Z,1.50
2019-02-04T07:14:00.308Z,1.60
2019-02-04T07:16:26.355Z,1.60
2019-02-04T07:18:52.427Z,1.70
2019-02-04T07:21:21.080Z,1.70
2019-02-04T07:23:46.942Z,1.60
2019-02-04T07:26:13.046Z,1.60
2019-02-04T07:28:39.306Z,1.70
2019-02-04T07:31:05.430Z,1.70
2019-02-04T07:33:31.469Z,1.70
2019-02-04T07:35:57.511Z,1.70
2019-02-04T07:38:23.534Z,1.90
2019-02-04T07:40:49.583Z,1.80
2019-02-04T07:43:15.647Z,1.90
2019-02-04T07:45:41.697Z,1.90
2019-02-04T07:48:07.919Z,2.00
2019-02-04T07:50:34.082Z,2.00
2019-02-04T07:53:00.219Z,2.00
2019-02-04T07:55:26.392Z,1.90
2019-02-04T07:57:52.567Z,1.90
2019-02-04T08:00:24.605Z,1.80
2019-02-04T08:02:50.969Z,2.00
2019-02-04T08:05:17.106Z,2.00
2019-02-04T08:07:43.331Z,2.00
2019-02-04T08:10:13.571Z,1.90
2019-02-04T08:12:39.784Z,2.10
2019-02-04T08:15:20.882Z,2.20
2019-02-04T08:17:46.955Z,2.20
2019-02-04T08:20:13.046Z,2.20
2019-02-04T08:22:39.124Z,2.30
2019-02-04T08:25:11.036Z,2.30
2019-02-04T08:27:37.518Z,2.30
2019-02-04T08:30:07.389Z,2.30
2019-02-04T08:32:33.659Z,2.40
2019-02-04T08:34:59.714Z,2.50
2019-02-04T08:37:26.007Z,2.50
2019-02-04T08:39:52.032Z,2.60
2019-02-04T08:42:18.067Z,2.60
2019-02-04T08:44:44.111Z,2.60
2019-02-04T08:47:10.182Z,2.70
2019-02-04T08:49:36.325Z,2.80
2019-02-04T08:52:02.756Z,2.70
2019-02-04T08:54:28.915Z,2.70
2019-02-04T08:56:55.154Z,2.60
2019-02-04T08:59:21.305Z,2.70
2019-02-04T09:01:47.323Z,2.80
2019-02-04T09:04:13.343Z,2.90
2019-02-04T09:06:39.404Z,2.90
2019-02-04T09:09:06.410Z,3.10
2019-02-04T09:11:32.437Z,3.10
2019-02-04T09:13:58.835Z,3.20
2019-02-04T09:16:24.863Z,3.10
2019-02-04T09:18:50.907Z,3.30
2019-02-04T09:21:16.963Z,3.30
2019-02-04T09:23:43.114Z,3.40
2019-02-04T09:26:09.158Z,3.40
2019-02-04T09:28:35.206Z,3.20
2019-02-04T09:31:01.391Z,3.30
2019-02-04T09:33:27.610Z,3.40
2019-02-04T09:35:53.832Z,3.20
2019-02-04T09:38:19.867Z,3.30
2019-02-04T09:40:45.907Z,3.50
2019-02-04T09:43:12.239Z,3.60
2019-02-04T09:45:39.811Z,3.60
2019-02-04T09:48:09.044Z,3.60
2019-02-04T09:50:43.964Z,3.50
2019-02-04T09:53:10.030Z,3.50
2019-02-04T09:55:37.370Z,3.60
2019-02-04T09:58:03.934Z,3.70
2019-02-04T10:00:32.083Z,3.80
2019-02-04T10:02:58.103Z,3.80
2019-02-04T10:05:24.143Z,3.90
2019-02-04T10:07:50.375Z,4.00
2019-02-04T10:10:19.695Z,4.20
2019-02-04T10:12:45.847Z,4.00
2019-02-04T10:15:14.867Z,4.10
2019-02-04T10:17:41.008Z,4.30
2019-02-04T10:20:10.879Z,4.30
2019-02-04T10:22:37.311Z,4.30
2019-02-04T10:25:06.699Z,4.30
2019-02-04T10:27:35.451Z,4.20
2019-02-04T10:30:00.673Z,4.40
2019-02-04T10:32:26.711Z,4.40
2019-02-04T10:34:52.837Z,4.40
2019-02-04T10:37:18.965Z,4.30
2019-02-04T10:39:44.998Z,4.30
2019-02-04T10:42:11.149Z,4.50
2019-02-04T10:44:38.578Z,4.60
2019-02-04T10:47:04.846Z,4.50
2019-02-04T10:49:30.925Z,4.70
2019-02-04T10:51:57.053Z,4.70
2019-02-04T10:54:23.191Z,4.80
2019-02-04T10:56:49.293Z,4.80
2019-02-04T10:59:15.420Z,4.90
2019-02-04T11:01:41.530Z,4.80
2019-02-04T11:04:07.669Z,4.70
2019-02-04T11:06:33.841Z,4.70
2019-02-04T11:08:59.995Z,4.80
2019-02-04T11:11:26.044Z,5.00
2019-02-04T11:13:52.217Z,4.80
2019-02-04T11:16:18.299Z,4.90
2019-02-04T11:18:44.545Z,4.80
2019-02-04T11:21:10.704Z,4.80
2019-02-04T11:23:36.904Z,4.80
2019-02-04T11:26:03.360Z,4.90
2019-02-04T11:28:29.684Z,4.80
2019-02-04T11:30:57.259Z,4.60
2019-02-04T11:33:23.279Z,4.60
2019-02-04T11:35:49.708Z,4.40
2019-02-04T11:38:15.820Z,4.50
2019-02-04T11:40:42.091Z,4.50
2019-02-04T11:43:09.253Z,4.50
2019-02-04T11:45:35.415Z,4.60
2019-02-04T11:48:03.317Z,4.60
2019-02-04T11:50:29.555Z,4.70
2019-02-04T11:52:55.587Z,4.60
2019-02-04T11:55:21.710Z,4.60
2019-02-04T11:57:47.749Z,4.60
2019-02-04T12:00:28.319Z,4.50
2019-02-04T12:02:56.167Z,4.30
2019-02-04T12:05:22.504Z,4.60
2019-02-04T12:07:49.004Z,4.60
2019-02-04T12:10:18.015Z,4.50
2019-02-04T12:12:44.045Z,4.50
2019-02-04T12:15:16.092Z,4.50
2019-02-04T12:17:42.135Z,4.60
2019-02-04T12:20:10.996Z,4.50
2019-02-04T12:22:37.435Z,4.70
2019-02-04T12:25:05.905Z,4.80
2019-02-04T12:27:32.552Z,4.80
2019-02-04T12:29:59.491Z,4.80
2019-02-04T12:32:26.215Z,4.90
2019-02-04T12:34:52.261Z,4.80
2019-02-04T12:37:18.407Z,4.80
2019-02-04T12:39:44.876Z,4.90
2019-02-04T12:42:11.048Z,4.80
2019-02-04T12:44:37.247Z,4.80
2019-02-04T12:47:04.035Z,4.90
2019-02-04T12:49:30.116Z,4.90
2019-02-04T12:51:56.139Z,4.90
2019-02-04T12:54:22.441Z,5.00
2019-02-04T12:56:48.485Z,5.10
2019-02-04T12:59:14.840Z,4.90
2019-02-04T13:01:40.944Z,5.00
2019-02-04T13:04:07.015Z,4.70
2019-02-04T13:06:33.147Z,4.70
2019-02-04T13:08:59.202Z,4.70
2019-02-04T13:11:25.423Z,4.90
2019-02-04T13:13:51.452Z,4.90
2019-02-04T13:16:18.187Z,4.80
2019-02-04T13:18:44.267Z,4.80
2019-02-04T13:21:10.302Z,4.80
2019-02-04T13:23:36.405Z,4.80
2019-02-04T13:26:02.639Z,4.70
2019-02-04T13:28:28.786Z,4.80
2019-02-04T13:30:54.852Z,4.60
2019-02-04T13:33:21.164Z,4.60
2019-02-04T13:35:47.214Z,4.60
2019-02-04T13:38:13.273Z,4.70
2019-02-04T13:40:40.323Z,4.50
2019-02-04T13:43:06.519Z,4.50
2019-02-04T13:45:33.077Z,4.50
2019-02-04T13:47:59.190Z,4.60
2019-02-04T13:50:26.419Z,4.70
2019-02-04T13:52:52.595Z,4.50
2019-02-04T13:55:22.255Z,4.40
2019-02-04T13:57:49.148Z,4.50
2019-02-04T14:00:16.193Z,4.30
2019-02-04T14:02:42.516Z,4.30
2019-02-04T14:05:09.667Z,4.30
2019-02-04T14:07:37.491Z,4.30
2019-02-04T14:10:13.126Z,4.20
2019-02-04T14:12:39.210Z,4.20
2019-02-04T14:15:08.157Z,4.20
2019-02-04T14:17:34.288Z,4.20
2019-02-04T14:20:00.336Z,4.10
2019-02-04T14:22:26.785Z,4.20
2019-02-04T14:24:53.324Z,4.30
2019-02-04T14:27:19.400Z,4.20
2019-02-04T14:29:45.449Z,4.20
2019-02-04T14:32:11.580Z,4.20
2019-02-04T14:34:37.867Z,4.20
2019-02-04T14:37:03.933Z,4.10
2019-02-04T14:39:30.175Z,4.10
2019-02-04T14:41:56.572Z,4.10
2019-02-04T14:44:24.160Z,4.10
2019-02-04T14:46:54.130Z,4.20
2019-02-04T14:49:46.358Z,4.10
2019-02-04T14:52:28.649Z,4.10
2019-02-04T14:55:22.176Z,4.10
2019-02-04T14:58:00.960Z,4.00
2019-02-04T15:00:31.126Z,4.10
2019-02-04T15:03:22.044Z,4.10
2019-02-04T15:05:54.749Z,4.20
2019-02-04T15:08:41.253Z,4.10
2019-02-04T15:11:13.971Z,4.00
2019-02-04T15:13:52.901Z,4.00
2019-02-04T15:16:28.909Z,4.00
2019-02-04T15:19:10.270Z,4.00
2019-02-04T15:21:45.497Z,4.00
2019-02-04T15:24:21.176Z,3.90
2019-02-04T15:26:56.625Z,4.00
2019-02-04T15:29:26.493Z,4.00
2019-02-04T15:32:13.045Z,4.00
2019-02-04T15:35:04.039Z,4.00
2019-02-04T15:37:29.256Z,3.90
2019-02-04T15:39:59.106Z,3.90
2019-02-04T15:42:41.082Z,4.00
2019-02-04T15:45:31.360Z,4.00
2019-02-04T15:47:58.601Z,4.00
2019-02-04T15:50:49.865Z,4.00
2019-02-04T15:53:16.060Z,4.00
2019-02-04T15:55:42.093Z,4.00
2019-02-04T15:58:08.120Z,4.00
2019-02-04T16:00:34.283Z,4.00
2019-02-04T16:03:00.892Z,4.10
2019-02-04T16:05:26.998Z,4.00
2019-02-04T16:07:53.180Z,4.00
2019-02-04T16:10:19.229Z,4.00
2019-02-04T16:12:47.705Z,4.10
2019-02-04T16:15:13.963Z,4.10
2019-02-04T16:17:40.278Z,4.10
2019-02-04T16:20:13.087Z,4.00
2019-02-04T16:22:39.150Z,4.00
2019-02-04T16:25:08.412Z,4.10
2019-02-04T16:27:34.438Z,4.10
2019-02-04T16:30:00.569Z,4.10
2019-02-04T16:32:27.859Z,4.10
2019-02-04T16:34:53.908Z,4.10
2019-02-04T16:37:20.236Z,4.10
2019-02-04T16:39:46.625Z,4.20
2019-02-04T16:42:12.707Z,4.10
2019-02-04T16:44:38.954Z,4.20
2019-02-04T16:47:05.120Z,4.20
2019-02-04T16:49:31.234Z,4.10
2019-02-04T16:51:57.278Z,4.20
2019-02-04T16:54:23.380Z,4.20
2019-02-04T16:56:49.476Z,4.20
2019-02-04T16:59:15.796Z,4.30
2019-02-04T17:01:41.839Z,4.20
2019-02-04T17:04:07.896Z,4.20
2019-02-04T17:06:34.035Z,4.20
2019-02-04T17:09:02.207Z,4.20
2019-02-04T17:11:28.048Z,4.20
2019-02-04T17:13:54.320Z,4.20
2019-02-04T17:16:20.531Z,4.20
2019-02-04T17:18:47.427Z,4.20
2019-02-04T17:21:13.498Z,4.20
2019-02-04T17:23:39.551Z,4.20
2019-02-04T17:26:05.575Z,4.20
2019-02-04T17:28:31.604Z,4.20
2019-02-04T17:30:57.842Z,4.20
2019-02-04T17:33:23.867Z,4.30
2019-02-04T17:35:50.158Z,4.20
2019-02-04T17:38:16.190Z,4.20
2019-02-04T17:40:42.484Z,4.20
2019-02-04T17:43:08.541Z,4.20
2019-02-04T17:45:35.588Z,4.20
2019-02-04T17:48:01.948Z,4.30
2019-02-04T17:50:28.077Z,4.20
2019-02-04T17:52:54.433Z,4.20
2019-02-04T17:55:22.942Z,4.20
2019-02-04T17:57:49.481Z,4.20
2019-02-04T18:00:23.047Z,4.20
2019-02-04T18:02:49.148Z,4.20
2019-02-04T18:05:15.310Z,4.20
2019-02-04T18:07:41.528Z,4.30
2019-02-04T18:10:13.797Z,4.30
2019-02-04T18:12:40.070Z,4.20
2019-02-04T18:15:12.600Z,4.30
2019-02-04T18:17:38.777Z,4.20
2019-02-04T18:20:07.044Z,4.20
2019-02-04T18:22:33.207Z,4.20
2019-02-04T18:24:59.326Z,4.20
2019-02-04T18:27:25.469Z,4.20
2019-02-04T18:29:51.773Z,4.20
2019-02-04T18:32:17.907Z,4.20
2019-02-04T18:34:43.963Z,4.20
2019-02-04T18:37:10.304Z,4.20
2019-02-04T18:39:36.365Z,4.20
2019-02-04T18:42:04.542Z,4.10
2019-02-04T18:44:31.106Z,4.10
2019-02-04T18:46:57.336Z,4.00
2019-02-04T18:49:23.526Z,4.00
2019-02-04T18:51:50.084Z,4.00
2019-02-04T18:54:16.219Z,4.00
2019-02-04T18:56:42.391Z,3.90
2019-02-04T18:59:08.735Z,3.90
2019-02-04T19:01:35.848Z,3.90
2019-02-04T19:04:01.996Z,3.90
2019-02-04T19:06:28.632Z,4.00
2019-02-04T19:08:54.934Z,3.90
2019-02-04T19:11:21.027Z,3.90
2019-02-04T19:13:47.124Z,3.90
2019-02-04T19:16:13.290Z,3.90
2019-02-04T19:18:39.432Z,3.90
2019-02-04T19:21:05.549Z,3.90
2019-02-04T19:23:31.844Z,3.90
2019-02-04T19:25:58.623Z,3.90
2019-02-04T19:28:24.653Z,4.00
2019-02-04T19:31:00.301Z,3.90
2019-02-04T19:33:26.392Z,3.90
2019-02-04T19:35:52.543Z,4.00
2019-02-04T19:38:18.704Z,3.90
2019-02-04T19:40:44.845Z,3.90
2019-02-04T19:43:11.372Z,3.90
2019-02-04T19:45:37.781Z,3.90
2019-02-04T19:48:04.090Z,4.00
2019-02-04T19:50:36.521Z,3.90
2019-02-04T19:53:03.562Z,3.90
2019-02-04T19:55:31.069Z,4.00
2019-02-04T19:57:57.295Z,4.00
2019-02-04T20:00:23.547Z,4.00
2019-02-04T20:02:51.006Z,4.00
2019-02-04T20:05:19.667Z,4.00
2019-02-04T20:07:45.786Z,4.00
2019-02-04T20:10:13.762Z,4.00
2019-02-04T20:12:39.922Z,4.00
2019-02-04T20:15:12.768Z,4.10
2019-02-04T20:17:39.529Z,4.20
2019-02-04T20:20:07.342Z,4.10
2019-02-04T20:22:34.549Z,4.10
2019-02-04T20:25:00.655Z,4.10
2019-02-04T20:27:27.267Z,4.00
2019-02-04T20:29:54.717Z,4.10
2019-02-04T20:32:20.773Z,4.10
2019-02-04T20:34:46.843Z,4.10
2019-02-04T20:37:13.385Z,4.10
2019-02-04T20:39:39.805Z,4.10
2019-02-04T20:42:06.304Z,4.10
2019-02-04T20:44:32.365Z,4.10
2019-02-04T20:47:02.257Z,4.00
2019-02-04T20:49:28.684Z,4.10
2019-02-04T20:51:54.744Z,4.00
2019-02-04T20:54:21.877Z,4.00
2019-02-04T20:56:52.207Z,3.90
2019-02-04T20:59:18.294Z,3.90
2019-02-04T21:01:44.731Z,4.00
2019-02-04T21:04:11.049Z,4.00
2019-02-04T21:06:37.115Z,4.00
2019-02-04T21:09:06.389Z,4.10
2019-02-04T21:11:32.547Z,4.10
2019-02-04T21:13:58.723Z,4.00
2019-02-04T21:16:24.764Z,4.00
2019-02-04T21:18:51.074Z,4.10
2019-02-04T21:21:17.099Z,4.00
2019-02-04T21:23:43.177Z,3.90
2019-02-04T21:26:09.235Z,3.90
2019-02-04T21:28:35.909Z,3.90
2019-02-04T21:31:02.117Z,3.90
2019-02-04T21:33:28.268Z,3.90
2019-02-04T21:35:54.504Z,4.00
2019-02-04T21:38:20.535Z,3.90
2019-02-04T21:40:46.669Z,3.80
2019-02-04T21:43:12.723Z,3.80
2019-02-04T21:45:38.804Z,3.80
2019-02-04T21:48:05.145Z,3.70
2019-02-04T21:50:31.215Z,3.80
2019-02-04T21:52:57.390Z,3.70
2019-02-04T21:55:26.752Z,3.70
2019-02-04T21:57:53.001Z,3.70
2019-02-04T22:00:40.477Z,3.70
2019-02-04T22:03:07.679Z,3.70
2019-02-04T22:05:34.049Z,3.80
2019-02-04T22:08:00.649Z,3.80
2019-02-04T22:10:28.294Z,3.80
2019-02-04T22:12:54.584Z,3.80
2019-02-04T22:15:21.080Z,3.80
2019-02-04T22:17:51.301Z,3.70
2019-02-04T22:20:18.567Z,3.70
2019-02-04T22:22:44.881Z,3.70
2019-02-04T22:25:19.848Z,3.70
2019-02-04T22:27:44.983Z,3.80
2019-02-04T22:30:16.917Z,3.80
2019-02-04T22:32:43.673Z,3.70
2019-02-04T22:35:10.564Z,3.70
2019-02-04T22:37:37.432Z,3.70
2019-02-04T22:40:07.478Z,3.70
2019-02-04T22:42:36.825Z,3.70
2019-02-04T22:45:06.551Z,3.70
2019-02-04T22:47:35.607Z,3.60
2019-02-04T22:50:08.340Z,3.60
2019-02-04T22:52:37.256Z,3.60
2019-02-04T22:55:05.601Z,3.60
2019-02-04T22:57:32.641Z,3.60
2019-02-04T22:59:58.831Z,3.60
2019-02-04T23:02:24.868Z,3.60
2019-02-04T23:04:51.021Z,3.50
2019-02-04T23:07:17.142Z,3.40
2019-02-04T23:09:43.164Z,3.40
2019-02-04T23:12:09.306Z,3.40
2019-02-04T23:14:35.495Z,3.50
2019-02-04T23:17:02.307Z,3.40
2019-02-04T23:19:28.361Z,3.40
2019-02-04T23:22:04.747Z,3.40
2019-02-04T23:24:30.774Z,3.30
2019-02-04T23:26:56.806Z,3.30
2019-02-04T23:29:22.890Z,3.30
2019-02-04T23:31:49.069Z,3.20
2019-02-04T23:34:15.246Z,3.20
2019-02-04T23:36:41.274Z,3.20
2019-02-04T23:39:08.211Z,3.10
2019-02-04T23:41:34.236Z,3.10
2019-02-04T23:44:00.292Z,3.10
2019-02-04T23:46:26.383Z,3.10
2019-02-04T23:48:52.767Z,3.20
2019-02-04T23:51:19.413Z,3.10
2019-02-04T23:53:45.589Z,3.10
2019-02-04T23:56:11.725Z,3.20
2019-02-04T23:58:38.328Z,3.10
